Список аэропортов
Фактическая погода:

23 апреля, 12:30
Температура: +6°C (+1.8*)
Ветер: западный 7 м/с
Давление: *751 мм
разорв. обл.
кучево-дождевые 1230 м
Время (МСК)Темп. СВетерВлажностьДавлениеОблачностьОсадки
09:00+4ЮЗ, 8 м/с60%1000 гПамалооблачно
10:00+5ЮЗ, 8 м/с58%1000 гПаоблачно
11:00+6ЮЗ, 8 м/с54%1001 гПамалооблачно
12:00+7ЮЗ, 8 м/с49%1001 гПас прояснениями
13:00+7З, 8 м/с47%1001 гПаоблачно
14:00+7ЮЗ, 8 м/с46%1002 гПас прояснениями
15:00+8ЮЗ, 8 м/с45%1002 гПамалооблачно
16:00+8ЮЗ, 7 м/с44%1002 гПас прояснениями
17:00+8З, 7 м/с44%1003 гПамалооблачно
18:00+7З, 6 м/с44%1004 гПаясно
19:00+6З, 5 м/с45%1004 гПаясно
20:00+5З, 3 м/с51%1005 гПаясно
21:00+3ЮЗ, 2 м/с63%1005 гПаясно
22:00+2Ю, 2 м/с72%1006 гПаоблачно
23:00+1ЮЗ, 2 м/с74%1007 гПас прояснениями
24 апреля
00:000ЮЗ, 2 м/с76%1007 гПамалооблачно
01:000ЮЗ, 2 м/с80%1007 гПамалооблачно
02:00-0З, 2 м/с82%1007 гПас прояснениями
03:00-1З, 1 м/с84%1006 гПамалооблачно
04:00-1ЮЗ, 1 м/с86%1006 гПамалооблачно
05:00-2ЮЗ, 1 м/с87%1007 гПаясно
06:00-2З, 2 м/с88%1006 гПаоблачно
07:00-1З, 1 м/с83%1006 гПаоблачно
08:00+2СЗ, 1 м/с70%1006 гПаоблачно
09:00+5Штиль 62%1006 гПаоблачно
10:00+7СЗ, 1 м/с55%1006 гПаоблачно
11:00+8СЗ, 3 м/с54%1005 гПаоблачносл. дождь
12:00+9СЗ, 3 м/с55%1005 гПаоблачносл. дождь
13:00+9СЗ, 2 м/с53%1005 гПаоблачносл. дождь
14:00+10СЗ, 2 м/с47%1005 гПаоблачносл. дождь
15:00+10СЗ, 3 м/с50%1005 гПаоблачносл. дождь
16:00+9СЗ, 3 м/с58%1005 гПаоблачнодождь
17:00+9СЗ, 4 м/с62%1005 гПаоблачнодождь
18:00+8СЗ, 5 м/с67%1006 гПаоблачнодождь
19:00+7СЗ, 5 м/с62%1006 гПаоблачносл. дождь
20:00+7СЗ, 5 м/с58%1007 гПаоблачно
21:00+6СЗ, 4 м/с63%1008 гПаоблачно
22:00+5СЗ, 3 м/с68%1008 гПаоблачно
23:00+4З, 2 м/с72%1008 гПаоблачно
25 апреля
00:00+3З, 3 м/с77%1009 гПаоблачно
01:00+3З, 4 м/с64%1010 гПаясно
02:00+2СЗ, 4 м/с67%1011 гПаясно
03:00+1З, 3 м/с76%1011 гПаясно
04:00+1З, 3 м/с80%1012 гПаясно
05:000З, 3 м/с83%1012 гПаясно
06:00-0З, 3 м/с84%1013 гПаясно
07:00+1З, 3 м/с77%1014 гПаясно
08:00+4З, 3 м/с63%1014 гПаясно
09:00+7З, 4 м/с53%1014 гПаясно